Terminal Aerodrome Forecast
Issued by NWS

Home | Current Version | Previous Version | Text Only | Print | Product List | Glossary On
Versions: 1 2 3 4 5 6 7 8 9 10 11 12 13 14 15 16 17 18 19 20 21 22
191
FTUS43 KICT 210524
TAFCNU
TAF
KCNU 210524Z 2106/2206 01012KT P6SM BKN015 OVC080
     FM210900 01012KT P6SM BKN120
     FM212100 05012KT P6SM OVC060
     FM220200 05009KT 5SM -FZRAPL OVC025=

USA.gov is the U.S. government's official web portal to all federal, state and local government web resources and services.